首页
METAR-TAF:

METAR-TAF

机场 :

奥利弗·坦博国际机场

约翰内斯堡, 南非共和國

纬度: 26-08S, 经度: 028-14E, 海拔: 1694米

当前天气观测

该预报发布于35分钟前的15:30 UTC
风速7节,风向北转西北
温度 18°C
湿度 19%
气压 1025 hPa
能见度10公里或以上
1500米以下无云,无积雨云

METAR: FAOR 171530Z 33007KT CAVOK 18/M06 Q1025 NOSIG

时间: 18:05 (16:05 UTC)

预报

该预报发布于6小时和5分钟前的10:00 UTC
预报有效从17日的 12点(UTC)到 18日的 18点(UTC)
风速3节,风向多变
能见度10公里或以上
1500米以下无云,无积雨云
成为
从 17日的 12点(UTC)到 17日的 14点(UTC)
风速10节,风向西转西北
几率 40% :
短暂存在
从 18日的 09点(UTC)到 18日的 12点(UTC)
风速15节,风向西北,有时为25节阵风

TAF: FAOR 171000Z 1712/1818 VRB03KT CAVOK TX22/1712Z TN09/1803Z BECMG 1712/1714 30010KT PROB40 TEMPO 1809/1812 31015G25KT

超过4000个机场的气象观测和天气预报(METAR&TAF报告)。

可查询的气象台以黄色和红色小点在地图上表示。

将鼠标移到小点上方,可查看气象台名称。

然后点击查看天气观测和预报。

如需切换地图:点击带黑十字的绿色按钮放大地图;点击带横线的绿色按钮缩小地图;或者点击绿色箭头查看邻近地区的地图。


METAR-TAF: